createdAt,value
2022-11-25T00:01:25.958Z,6.93
2022-11-25T00:03:55.889Z,10.77
2022-11-25T00:06:25.352Z,7.43
2022-11-25T00:08:57.118Z,8.05
2022-11-25T00:11:25.087Z,9.20
2022-11-25T00:13:53.264Z,12.57
2022-11-25T00:16:23.799Z,13.23
2022-11-25T00:18:52.991Z,12.00
2022-11-25T00:21:23.167Z,8.57
2022-11-25T00:23:54.820Z,12.10
2022-11-25T00:26:24.239Z,12.48
2022-11-25T00:28:52.983Z,13.45
2022-11-25T00:31:24.450Z,11.90
2022-11-25T00:33:53.400Z,13.30
2022-11-25T00:36:24.146Z,13.35
2022-11-25T00:38:54.809Z,10.35
2022-11-25T00:41:41.101Z,10.52
2022-11-25T00:44:28.817Z,11.18
2022-11-25T00:46:58.214Z,10.32
2022-11-25T00:49:28.189Z,10.88
2022-11-25T00:51:56.344Z,8.73
2022-11-25T00:54:24.543Z,14.70
2022-11-25T00:56:52.927Z,8.80
2022-11-25T00:59:21.113Z,12.80
2022-11-25T01:01:49.315Z,10.50
2022-11-25T01:04:18.664Z,12.60
2022-11-25T01:06:46.803Z,14.60
2022-11-25T01:09:16.766Z,12.35
2022-11-25T01:11:44.841Z,16.15
2022-11-25T01:14:13.168Z,17.35
2022-11-25T01:16:41.641Z,14.00
2022-11-25T01:19:09.774Z,6.80
2022-11-25T01:21:41.715Z,14.77
2022-11-25T01:24:14.721Z,12.90
2022-11-25T01:26:43.668Z,11.48
2022-11-25T01:29:15.279Z,12.82
2022-11-25T01:31:43.824Z,11.73
2022-11-25T01:34:15.514Z,15.40
2022-11-25T01:36:44.843Z,12.60
2022-11-25T01:39:16.978Z,16.63
2022-11-25T01:41:45.325Z,11.75
2022-11-25T01:44:15.283Z,14.73
2022-11-25T01:46:54.616Z,13.40
2022-11-25T01:49:28.200Z,18.52
2022-11-25T01:52:02.844Z,21.35
2022-11-25T01:54:34.873Z,8.50
2022-11-25T01:57:07.802Z,20.25
2022-11-25T01:59:39.709Z,12.93
2022-11-25T02:02:09.758Z,19.37
2022-11-25T02:04:40.861Z,13.45
2022-11-25T02:07:16.889Z,13.95
2022-11-25T02:09:46.827Z,14.20
2022-11-25T02:12:17.659Z,12.77
2022-11-25T02:14:47.416Z,11.30
2022-11-25T02:17:15.512Z,11.75
2022-11-25T02:19:57.523Z,18.92
2022-11-25T02:22:39.392Z,18.67
2022-11-25T02:25:20.819Z,7.85
2022-11-25T02:27:53.671Z,16.52
2022-11-25T02:30:21.587Z,10.27
2022-11-25T02:32:50.500Z,13.32
2022-11-25T02:35:37.543Z,8.82
2022-11-25T02:38:09.153Z,15.32
2022-11-25T02:40:45.129Z,15.23
2022-11-25T02:43:13.284Z,11.52
2022-11-25T02:45:49.803Z,17.98
2022-11-25T02:48:17.801Z,9.77
2022-11-25T02:50:46.051Z,9.15
2022-11-25T02:53:16.360Z,9.48
2022-11-25T02:55:45.871Z,9.20
2022-11-25T02:58:14.318Z,13.52
2022-11-25T03:00:42.785Z,6.95
2022-11-25T03:03:10.976Z,12.48
2022-11-25T03:05:38.981Z,17.83
2022-11-25T03:08:07.757Z,7.07
2022-11-25T03:10:37.724Z,14.27
2022-11-25T03:13:08.175Z,10.25
2022-11-25T03:15:40.539Z,10.20
2022-11-25T03:18:08.744Z,10.10
2022-11-25T03:20:38.041Z,13.52
2022-11-25T03:23:06.333Z,9.25
2022-11-25T03:25:35.745Z,6.82
2022-11-25T03:28:05.098Z,13.43
2022-11-25T03:30:35.419Z,5.10
2022-11-25T03:33:04.614Z,12.00
2022-11-25T03:35:32.653Z,13.23
2022-11-25T03:38:00.493Z,11.77
2022-11-25T03:40:28.967Z,8.57
2022-11-25T03:42:56.840Z,13.38
2022-11-25T03:45:25.180Z,12.00
2022-11-25T03:47:56.205Z,7.97
2022-11-25T03:50:24.395Z,7.20
2022-11-25T03:52:52.356Z,16.30
2022-11-25T03:55:21.068Z,11.73
2022-11-25T03:57:50.693Z,6.72
2022-11-25T04:00:20.160Z,8.45
2022-11-25T04:03:04.578Z,13.60
2022-11-25T04:05:34.143Z,9.88
2022-11-25T04:08:07.055Z,11.55
2022-11-25T04:10:36.274Z,14.02
2022-11-25T04:13:04.325Z,10.25
2022-11-25T04:15:45.672Z,11.90
2022-11-25T04:18:15.419Z,10.97
2022-11-25T04:20:44.040Z,15.27
2022-11-25T04:23:14.149Z,8.30
2022-11-25T04:25:53.684Z,11.02
2022-11-25T04:28:27.156Z,15.20
2022-11-25T04:30:55.924Z,12.30
2022-11-25T04:33:25.212Z,9.02
2022-11-25T04:35:54.009Z,8.82
2022-11-25T04:38:22.113Z,7.45
2022-11-25T04:40:50.673Z,10.02
2022-11-25T04:43:21.780Z,9.50
2022-11-25T04:46:14.275Z,7.20
2022-11-25T04:48:46.947Z,13.65
2022-11-25T04:51:16.529Z,10.32
2022-11-25T04:53:45.658Z,14.70
2022-11-25T04:56:19.171Z,5.55
2022-11-25T04:59:05.595Z,11.93
2022-11-25T05:01:35.525Z,10.45
2022-11-25T05:04:28.459Z,10.05
2022-11-25T05:06:56.752Z,8.32
2022-11-25T05:09:26.075Z,12.57
2022-11-25T05:12:19.344Z,7.40
2022-11-25T05:14:47.426Z,5.82
2022-11-25T05:17:17.771Z,11.00
2022-11-25T05:19:47.789Z,11.70
2022-11-25T05:22:18.185Z,10.00
2022-11-25T05:24:47.189Z,13.50
2022-11-25T05:27:15.804Z,10.90
2022-11-25T05:29:43.852Z,12.95
2022-11-25T05:32:12.738Z,12.43
2022-11-25T05:34:41.073Z,7.53
2022-11-25T05:37:15.499Z,13.02
2022-11-25T05:39:53.122Z,7.00
2022-11-25T05:42:23.935Z,10.48
2022-11-25T05:44:52.472Z,11.30
2022-11-25T05:47:20.362Z,8.30
2022-11-25T05:49:49.292Z,7.95
2022-11-25T05:52:18.534Z,12.07
2022-11-25T05:54:57.295Z,6.43
2022-11-25T05:57:25.678Z,7.45
2022-11-25T06:00:25.028Z,7.50
2022-11-25T06:02:55.119Z,9.43
2022-11-25T06:05:23.928Z,5.93
2022-11-25T06:07:53.530Z,10.88
2022-11-25T06:10:23.233Z,6.65
2022-11-25T06:12:53.705Z,6.95
2022-11-25T06:15:22.107Z,11.68
2022-11-25T06:17:51.358Z,13.50
2022-11-25T06:20:24.677Z,10.00
2022-11-25T06:22:54.727Z,12.35
2022-11-25T06:25:29.262Z,12.00
2022-11-25T06:28:12.479Z,15.02
2022-11-25T06:30:48.231Z,8.90
2022-11-25T06:33:27.253Z,7.57
2022-11-25T06:35:57.014Z,10.15
2022-11-25T06:38:26.318Z,18.08
2022-11-25T06:40:57.775Z,12.68
2022-11-25T06:43:28.519Z,14.55
2022-11-25T06:45:56.559Z,13.18
2022-11-25T06:48:24.401Z,9.50
2022-11-25T06:50:59.320Z,11.90
2022-11-25T06:53:29.164Z,12.88
2022-11-25T06:56:09.013Z,14.25
2022-11-25T06:58:37.620Z,9.23
2022-11-25T07:01:09.363Z,7.50
2022-11-25T07:03:37.312Z,9.95
2022-11-25T07:06:05.781Z,10.63
2022-11-25T07:08:35.268Z,7.57
2022-11-25T07:11:08.472Z,13.80
2022-11-25T07:13:36.329Z,9.82
2022-11-25T07:16:05.850Z,10.07
2022-11-25T07:18:35.304Z,9.55
2022-11-25T07:21:05.413Z,6.82
2022-11-25T07:23:33.372Z,11.38
2022-11-25T07:26:07.561Z,7.93
2022-11-25T07:28:35.755Z,11.13
2022-11-25T07:31:27.543Z,8.90
2022-11-25T07:33:58.317Z,9.88
2022-11-25T07:36:26.973Z,20.65
2022-11-25T07:38:55.555Z,31.63
2022-11-25T07:41:26.740Z,36.20
2022-11-25T07:43:56.050Z,41.45
2022-11-25T07:46:27.754Z,24.92
2022-11-25T07:48:57.611Z,19.92
2022-11-25T07:51:28.087Z,26.17
2022-11-25T07:53:57.449Z,17.35
2022-11-25T07:56:27.147Z,25.38
2022-11-25T07:58:55.580Z,15.13
2022-11-25T08:01:24.004Z,10.15
2022-11-25T08:03:52.863Z,13.40
2022-11-25T08:06:22.695Z,17.80
2022-11-25T08:08:52.810Z,11.50
2022-11-25T08:11:22.654Z,13.95
2022-11-25T08:13:52.570Z,12.45
2022-11-25T08:16:22.981Z,16.02
2022-11-25T08:18:51.022Z,12.32
2022-11-25T08:21:19.993Z,12.98
2022-11-25T08:23:48.966Z,14.25
2022-11-25T08:26:19.198Z,14.95
2022-11-25T08:28:48.065Z,13.15
2022-11-25T08:31:20.521Z,16.90
2022-11-25T08:33:49.314Z,10.88
2022-11-25T08:36:17.852Z,12.20
2022-11-25T08:38:47.136Z,14.18
2022-11-25T08:41:18.103Z,7.43
2022-11-25T08:43:46.012Z,8.35
2022-11-25T08:46:16.840Z,10.30
2022-11-25T08:48:46.318Z,11.57
2022-11-25T08:51:17.388Z,15.18
2022-11-25T08:53:46.227Z,22.25
2022-11-25T08:56:15.420Z,22.05
2022-11-25T08:58:43.337Z,11.30
2022-11-25T09:01:12.375Z,11.48
2022-11-25T09:03:43.238Z,11.63
2022-11-25T09:06:13.629Z,11.82
2022-11-25T09:08:43.348Z,19.30
2022-11-25T09:11:12.307Z,15.70
2022-11-25T09:13:40.680Z,16.85
2022-11-25T09:16:09.452Z,11.98
2022-11-25T09:18:37.855Z,15.27
2022-11-25T09:21:10.647Z,15.68
2022-11-25T09:23:40.821Z,16.23
2022-11-25T09:26:18.064Z,9.48
2022-11-25T09:28:45.952Z,14.32
2022-11-25T09:31:14.333Z,10.95
2022-11-25T09:33:42.305Z,8.88
2022-11-25T09:36:12.391Z,14.90
2022-11-25T09:38:45.363Z,15.55
2022-11-25T09:41:42.513Z,11.60
2022-11-25T09:44:39.272Z,9.60
2022-11-25T09:47:16.443Z,9.45
2022-11-25T09:50:00.739Z,9.20
2022-11-25T09:52:34.956Z,10.98
2022-11-25T09:55:10.317Z,6.95
2022-11-25T09:57:59.615Z,13.25
2022-11-25T10:00:36.319Z,9.45
2022-11-25T10:03:11.009Z,8.52
2022-11-25T10:05:43.362Z,8.27
2022-11-25T10:08:16.640Z,7.43
2022-11-25T10:10:49.019Z,11.65
2022-11-25T10:13:47.951Z,10.02
2022-11-25T10:16:30.392Z,7.53
2022-11-25T10:19:02.035Z,5.90
2022-11-25T10:21:30.234Z,11.75
2022-11-25T10:23:58.216Z,31.15
2022-11-25T10:26:31.950Z,13.20
2022-11-25T10:29:20.267Z,12.20
2022-11-25T10:31:49.103Z,9.20
2022-11-25T10:34:24.761Z,9.48
2022-11-25T10:36:54.079Z,5.72
2022-11-25T10:39:26.401Z,7.20
2022-11-25T10:41:59.434Z,14.40
2022-11-25T10:44:31.712Z,11.13
2022-11-25T10:47:14.874Z,14.13
2022-11-25T10:49:52.820Z,9.45
2022-11-25T10:52:24.145Z,7.05
2022-11-25T10:55:08.759Z,12.18
2022-11-25T10:57:38.064Z,4.82
2022-11-25T11:00:12.792Z,13.13
2022-11-25T11:02:48.249Z,7.15
2022-11-25T11:07:47.978Z,8.00
2022-11-25T11:10:21.731Z,12.13
2022-11-25T11:12:58.166Z,7.50
2022-11-25T11:15:28.501Z,8.35
2022-11-25T11:17:58.212Z,9.98
2022-11-25T11:20:28.554Z,10.27
2022-11-25T11:23:00.438Z,7.90
2022-11-25T11:25:34.150Z,7.07
2022-11-25T11:28:24.778Z,9.25
2022-11-25T11:30:57.501Z,16.13
2022-11-25T11:33:34.256Z,12.30
2022-11-25T11:36:17.175Z,10.02
2022-11-25T11:41:24.597Z,8.52
2022-11-25T11:44:09.660Z,10.18
2022-11-25T11:46:49.808Z,7.75
2022-11-25T11:49:35.415Z,8.25
2022-11-25T11:52:10.600Z,9.95
2022-11-25T11:54:45.538Z,12.85
2022-11-25T11:57:25.009Z,9.80
2022-11-25T11:59:56.814Z,17.10
2022-11-25T12:02:37.930Z,9.65
2022-11-25T12:05:15.367Z,12.60
2022-11-25T12:07:50.000Z,10.95
2022-11-25T12:10:25.289Z,8.60
2022-11-25T12:12:57.618Z,11.50
2022-11-25T12:15:36.625Z,16.10
2022-11-25T12:18:15.603Z,8.32
2022-11-25T12:20:48.915Z,7.70
2022-11-25T12:23:23.876Z,8.48
2022-11-25T12:25:55.252Z,11.98
2022-11-25T12:28:29.008Z,6.78
2022-11-25T12:31:05.631Z,11.27
2022-11-25T12:33:44.598Z,11.00
2022-11-25T12:36:17.807Z,11.18
2022-11-25T12:38:48.378Z,5.63
2022-11-25T12:41:25.807Z,6.53
2022-11-25T12:44:00.394Z,10.75
2022-11-25T12:46:36.528Z,8.32
2022-11-25T12:49:05.234Z,13.27
2022-11-25T12:51:54.103Z,7.82
2022-11-25T12:54:38.135Z,11.27
2022-11-25T12:57:43.149Z,9.15
2022-11-25T13:03:42.702Z,9.85
2022-11-25T13:06:39.800Z,11.85
2022-11-25T13:09:24.998Z,12.50
2022-11-25T13:12:10.752Z,8.32
2022-11-25T13:15:03.431Z,9.40
2022-11-25T13:17:36.887Z,10.90
2022-11-25T13:20:35.519Z,7.70
2022-11-25T13:23:08.719Z,14.93
2022-11-25T13:25:38.222Z,10.95
2022-11-25T13:28:29.473Z,10.82
2022-11-25T13:31:17.716Z,8.77
2022-11-25T13:34:24.016Z,11.15
2022-11-25T13:36:54.435Z,12.05
2022-11-25T13:39:31.867Z,10.05
2022-11-25T13:42:02.787Z,8.13
2022-11-25T13:44:35.201Z,9.27
2022-11-25T13:47:36.695Z,6.97
2022-11-25T13:50:10.726Z,8.82
2022-11-25T13:52:44.781Z,8.52
2022-11-25T13:55:27.275Z,10.25
2022-11-25T13:58:05.891Z,9.95
2022-11-25T14:00:51.955Z,9.27
2022-11-25T14:03:44.666Z,8.38
2022-11-25T14:06:24.131Z,9.20
2022-11-25T14:08:59.851Z,8.18
2022-11-25T14:12:03.185Z,10.02
2022-11-25T14:17:31.145Z,8.85
2022-11-25T14:20:19.459Z,9.93
2022-11-25T14:23:25.807Z,11.88
2022-11-25T14:25:57.736Z,9.70
2022-11-25T14:28:34.010Z,14.20
2022-11-25T14:31:08.045Z,9.85
2022-11-25T14:33:42.198Z,12.32
2022-11-25T14:36:15.379Z,10.95
2022-11-25T14:38:50.197Z,11.20
2022-11-25T14:41:22.172Z,9.63
2022-11-25T14:43:55.024Z,7.50
2022-11-25T14:46:26.037Z,13.18
2022-11-25T14:48:55.961Z,11.27
2022-11-25T14:51:25.290Z,10.30
2022-11-25T14:53:54.000Z,14.77
2022-11-25T14:56:30.558Z,17.73
2022-11-25T14:59:02.321Z,13.82
2022-11-25T15:01:31.943Z,12.27
2022-11-25T15:04:06.139Z,9.45
2022-11-25T15:06:36.436Z,9.57
2022-11-25T15:09:18.480Z,8.68
2022-11-25T15:11:49.296Z,12.10
2022-11-25T15:14:24.922Z,11.52
2022-11-25T15:16:53.579Z,9.05
2022-11-25T15:19:28.017Z,8.32
2022-11-25T15:22:22.611Z,9.80
2022-11-25T15:24:54.745Z,13.38
2022-11-25T15:27:27.481Z,9.43
2022-11-25T15:29:57.702Z,11.13
2022-11-25T15:32:27.511Z,10.10
2022-11-25T15:34:58.236Z,9.77
2022-11-25T15:37:26.348Z,11.55
2022-11-25T15:40:27.589Z,10.60
2022-11-25T15:42:57.145Z,12.38
2022-11-25T15:45:25.071Z,10.77
2022-11-25T15:47:53.029Z,12.93
2022-11-25T15:50:24.552Z,12.07
2022-11-25T15:52:55.306Z,12.10
2022-11-25T15:55:31.937Z,14.50
2022-11-25T15:58:06.810Z,17.60
2022-11-25T16:00:34.807Z,13.10
2022-11-25T16:03:04.200Z,13.70
2022-11-25T16:05:37.243Z,14.70
2022-11-25T16:08:28.842Z,18.60
2022-11-25T16:10:59.384Z,17.17
2022-11-25T16:13:36.852Z,20.05
2022-11-25T16:16:17.919Z,18.25
2022-11-25T16:18:55.933Z,14.93
2022-11-25T16:21:25.964Z,14.00
2022-11-25T16:23:57.975Z,13.90
2022-11-25T16:26:29.629Z,8.73
2022-11-25T16:29:01.224Z,13.23
2022-11-25T16:31:30.024Z,16.58
2022-11-25T16:34:02.307Z,12.32
2022-11-25T16:36:30.179Z,11.65
2022-11-25T16:38:58.049Z,15.07
2022-11-25T16:41:27.139Z,11.52
2022-11-25T16:43:57.191Z,14.88
2022-11-25T16:48:56.808Z,15.30
2022-11-25T16:51:25.901Z,23.48
2022-11-25T16:53:53.741Z,14.68
2022-11-25T16:56:25.676Z,12.70
2022-11-25T16:58:54.729Z,15.10
2022-11-25T17:01:25.724Z,16.67
2022-11-25T17:03:55.328Z,17.38
2022-11-25T17:06:26.045Z,11.77
2022-11-25T17:08:54.304Z,15.40
2022-11-25T17:11:26.929Z,13.93
2022-11-25T17:16:26.153Z,13.70
2022-11-25T17:18:57.392Z,12.63
2022-11-25T17:21:27.941Z,13.40
2022-11-25T17:24:00.691Z,13.40
2022-11-25T17:29:02.206Z,13.57
2022-11-25T17:31:33.716Z,14.55
2022-11-25T17:34:03.278Z,13.60
2022-11-25T17:36:31.097Z,17.83
2022-11-25T17:38:59.053Z,16.58
2022-11-25T17:41:27.527Z,17.77
2022-11-25T17:43:56.170Z,15.73
2022-11-25T17:46:28.596Z,15.35
2022-11-25T17:48:56.509Z,17.85
2022-11-25T17:51:25.773Z,16.48
2022-11-25T17:53:53.625Z,17.95
2022-11-25T17:56:26.349Z,16.65
2022-11-25T17:58:54.773Z,14.48
2022-11-25T18:01:22.805Z,15.68
2022-11-25T18:03:52.978Z,14.90
2022-11-25T18:06:21.024Z,11.25
2022-11-25T18:08:50.474Z,13.40
2022-11-25T18:11:22.885Z,18.92
2022-11-25T18:13:51.587Z,15.73
2022-11-25T18:16:20.931Z,15.15
2022-11-25T18:18:48.817Z,17.10
2022-11-25T18:21:16.874Z,12.75
2022-11-25T18:23:44.661Z,14.55
2022-11-25T18:26:13.993Z,12.10
2022-11-25T18:28:42.128Z,13.88
2022-11-25T18:31:13.770Z,12.70
2022-11-25T18:33:41.744Z,16.03
2022-11-25T18:36:13.718Z,18.15
2022-11-25T18:38:41.876Z,16.15
2022-11-25T18:41:21.104Z,23.67
2022-11-25T18:43:49.042Z,16.17
2022-11-25T18:46:16.970Z,13.18
2022-11-25T18:48:44.855Z,16.27
2022-11-25T18:51:14.365Z,15.15
2022-11-25T18:53:42.390Z,17.27
2022-11-25T18:56:17.731Z,17.73
2022-11-25T18:58:51.421Z,15.15
2022-11-25T19:01:22.568Z,16.38
2022-11-25T19:03:51.214Z,18.52
2022-11-25T19:06:19.083Z,20.70
2022-11-25T19:08:47.121Z,17.70
2022-11-25T19:11:20.112Z,17.35
2022-11-25T19:13:50.819Z,24.95
2022-11-25T19:16:22.270Z,18.95
2022-11-25T19:18:50.636Z,18.77
2022-11-25T19:21:20.992Z,16.40
2022-11-25T19:23:49.449Z,17.23
2022-11-25T19:26:22.210Z,14.43
2022-11-25T19:28:55.799Z,16.92
2022-11-25T19:31:23.823Z,14.02
2022-11-25T19:33:52.489Z,15.50
2022-11-25T19:36:24.436Z,15.48
2022-11-25T19:38:53.025Z,17.95
2022-11-25T19:41:22.567Z,23.48
2022-11-25T19:43:51.270Z,13.90
2022-11-25T19:46:30.033Z,14.95
2022-11-25T19:49:06.650Z,17.02
2022-11-25T19:51:35.652Z,22.20
2022-11-25T19:54:03.993Z,21.95
2022-11-25T19:56:33.252Z,17.70
2022-11-25T19:59:01.197Z,18.85
2022-11-25T20:01:34.115Z,17.40
2022-11-25T20:04:03.464Z,26.90
2022-11-25T20:06:31.655Z,22.92
2022-11-25T20:09:06.407Z,23.65
2022-11-25T20:11:37.009Z,18.92
2022-11-25T20:14:05.732Z,23.05
2022-11-25T20:16:37.682Z,21.95
2022-11-25T20:19:06.952Z,22.13
2022-11-25T20:21:39.819Z,25.15
2022-11-25T20:24:14.236Z,18.23
2022-11-25T20:26:48.403Z,28.90
2022-11-25T20:29:18.513Z,23.73
2022-11-25T20:31:48.580Z,17.92
2022-11-25T20:34:16.536Z,20.42
2022-11-25T20:36:45.557Z,23.95
2022-11-25T20:39:18.338Z,23.58
2022-11-25T20:41:51.130Z,27.20
2022-11-25T20:44:20.148Z,31.23
2022-11-25T20:46:48.108Z,29.55
2022-11-25T20:49:22.471Z,22.27
2022-11-25T20:51:50.710Z,22.92
2022-11-25T20:54:18.920Z,27.73
2022-11-25T20:56:46.753Z,25.65
2022-11-25T20:59:21.736Z,18.48
2022-11-25T21:01:50.471Z,22.85
2022-11-25T21:04:18.552Z,25.02
2022-11-25T21:06:47.031Z,28.75
2022-11-25T21:09:19.000Z,26.00
2022-11-25T21:11:47.135Z,24.73
2022-11-25T21:14:17.933Z,25.40
2022-11-25T21:16:46.029Z,31.83
2022-11-25T21:19:13.980Z,24.45
2022-11-25T21:21:44.881Z,25.20
2022-11-25T21:24:23.327Z,23.80
2022-11-25T21:26:51.807Z,26.67
2022-11-25T21:29:21.128Z,23.33
2022-11-25T21:31:49.283Z,22.42
2022-11-25T21:34:17.236Z,20.70
2022-11-25T21:36:47.726Z,21.77
2022-11-25T21:39:28.366Z,23.50
2022-11-25T21:41:58.949Z,23.48
2022-11-25T21:44:31.753Z,26.38
2022-11-25T21:46:59.868Z,26.25
2022-11-25T21:49:28.423Z,23.58
2022-11-25T21:51:56.316Z,25.42
2022-11-25T21:54:24.237Z,20.30
2022-11-25T21:56:52.602Z,23.80
2022-11-25T21:59:21.802Z,29.40
2022-11-25T22:01:51.247Z,20.73
2022-11-25T22:04:21.541Z,29.05
2022-11-25T22:06:50.957Z,43.38
2022-11-25T22:09:19.193Z,31.00
2022-11-25T22:11:50.261Z,33.78
2022-11-25T22:14:28.715Z,33.30
2022-11-25T22:16:58.378Z,26.15
2022-11-25T22:19:28.715Z,27.95
2022-11-25T22:21:57.056Z,26.15
2022-11-25T22:24:25.499Z,29.70
2022-11-25T22:26:57.744Z,20.85
2022-11-25T22:29:34.335Z,29.90
2022-11-25T22:32:08.194Z,25.10
2022-11-25T22:34:39.946Z,30.35
2022-11-25T22:37:16.556Z,19.17
2022-11-25T22:39:45.537Z,25.27
2022-11-25T22:42:20.512Z,29.15
2022-11-25T22:44:50.792Z,22.52
2022-11-25T22:47:27.488Z,22.70
2022-11-25T22:49:55.845Z,19.15
2022-11-25T22:52:27.095Z,21.67
2022-11-25T22:54:55.774Z,28.42
2022-11-25T22:57:23.733Z,21.58
2022-11-25T22:59:51.617Z,19.48
2022-11-25T23:06:36.034Z,32.95
2022-11-25T23:09:03.999Z,32.03
2022-11-25T23:11:34.584Z,32.38
2022-11-25T23:14:06.452Z,28.75
2022-11-25T23:16:34.909Z,27.52
2022-11-25T23:19:04.363Z,30.90
2022-11-25T23:21:32.371Z,22.65
2022-11-25T23:24:01.710Z,24.48
2022-11-25T23:26:35.047Z,24.45
2022-11-25T23:29:03.738Z,30.05
2022-11-25T23:31:31.874Z,22.60
2022-11-25T23:33:59.793Z,21.20
2022-11-25T23:36:31.650Z,26.83
2022-11-25T23:39:03.194Z,31.70
2022-11-25T23:41:32.981Z,23.13
2022-11-25T23:44:11.485Z,19.13
2022-11-25T23:46:41.056Z,22.38
2022-11-25T23:49:17.209Z,24.77
2022-11-25T23:51:45.344Z,21.75
2022-11-25T23:54:16.044Z,28.00
2022-11-25T23:56:44.087Z,26.25
2022-11-25T23:59:14.675Z,22.20
